sensor_id;sensor_type;location;lat;lon;timestamp;P1;durP1;ratioP1;P2;durP2;ratioP2
28968;SDS011;16076;51.194;6.642;2022-11-20T00:01:14;28.35;;;14.40;;
28968;SDS011;16076;51.194;6.642;2022-11-20T00:03:45;26.02;;;14.32;;
28968;SDS011;16076;51.194;6.642;2022-11-20T00:06:15;22.65;;;12.65;;
28968;SDS011;16076;51.194;6.642;2022-11-20T00:08:43;25.48;;;13.30;;
28968;SDS011;16076;51.194;6.642;2022-11-20T00:11:10;28.13;;;14.30;;
28968;SDS011;16076;51.194;6.642;2022-11-20T00:13:38;26.75;;;13.75;;
28968;SDS011;16076;51.194;6.642;2022-11-20T00:16:05;25.13;;;14.10;;
28968;SDS011;16076;51.194;6.642;2022-11-20T00:18:33;26.35;;;13.32;;
28968;SDS011;16076;51.194;6.642;2022-11-20T00:21:02;26.58;;;14.27;;
28968;SDS011;16076;51.194;6.642;2022-11-20T00:23:37;26.63;;;13.45;;
28968;SDS011;16076;51.194;6.642;2022-11-20T00:26:07;23.92;;;13.98;;
28968;SDS011;16076;51.194;6.642;2022-11-20T00:28:34;26.15;;;12.90;;
28968;SDS011;16076;51.194;6.642;2022-11-20T00:31:01;22.88;;;13.70;;
28968;SDS011;16076;51.194;6.642;2022-11-20T00:33:27;23.90;;;13.32;;
28968;SDS011;16076;51.194;6.642;2022-11-20T00:35:53;25.50;;;14.27;;
28968;SDS011;16076;51.194;6.642;2022-11-20T00:38:26;26.95;;;13.15;;
28968;SDS011;16076;51.194;6.642;2022-11-20T00:40:55;27.95;;;13.02;;
28968;SDS011;16076;51.194;6.642;2022-11-20T00:43:28;21.73;;;12.32;;
28968;SDS011;16076;51.194;6.642;2022-11-20T00:45:57;28.10;;;13.43;;
28968;SDS011;16076;51.194;6.642;2022-11-20T00:48:27;21.60;;;13.25;;
28968;SDS011;16076;51.194;6.642;2022-11-20T00:50:55;23.80;;;13.45;;
28968;SDS011;16076;51.194;6.642;2022-11-20T00:53:22;27.23;;;14.88;;
28968;SDS011;16076;51.194;6.642;2022-11-20T00:56:01;24.50;;;13.75;;
28968;SDS011;16076;51.194;6.642;2022-11-20T00:58:30;25.30;;;13.63;;
28968;SDS011;16076;51.194;6.642;2022-11-20T01:01:00;23.80;;;13.40;;
28968;SDS011;16076;51.194;6.642;2022-11-20T01:03:30;22.63;;;12.75;;
28968;SDS011;16076;51.194;6.642;2022-11-20T01:06:04;29.42;;;13.80;;
28968;SDS011;16076;51.194;6.642;2022-11-20T01:08:52;27.13;;;14.70;;
28968;SDS011;16076;51.194;6.642;2022-11-20T01:11:23;27.35;;;13.95;;
28968;SDS011;16076;51.194;6.642;2022-11-20T01:13:53;26.27;;;13.75;;
28968;SDS011;16076;51.194;6.642;2022-11-20T01:18:52;26.52;;;13.98;;
28968;SDS011;16076;51.194;6.642;2022-11-20T01:21:21;25.92;;;14.73;;
28968;SDS011;16076;51.194;6.642;2022-11-20T01:23:51;24.80;;;13.82;;
28968;SDS011;16076;51.194;6.642;2022-11-20T01:26:22;23.85;;;13.27;;
28968;SDS011;16076;51.194;6.642;2022-11-20T01:28:58;24.35;;;13.20;;
28968;SDS011;16076;51.194;6.642;2022-11-20T01:31:31;27.80;;;14.80;;
28968;SDS011;16076;51.194;6.642;2022-11-20T01:34:00;24.27;;;13.70;;
28968;SDS011;16076;51.194;6.642;2022-11-20T01:36:33;24.73;;;12.80;;
28968;SDS011;16076;51.194;6.642;2022-11-20T01:39:02;23.02;;;12.80;;
28968;SDS011;16076;51.194;6.642;2022-11-20T01:41:29;24.25;;;13.38;;
28968;SDS011;16076;51.194;6.642;2022-11-20T01:44:16;24.67;;;13.45;;
28968;SDS011;16076;51.194;6.642;2022-11-20T01:49:24;25.67;;;13.57;;
28968;SDS011;16076;51.194;6.642;2022-11-20T01:51:56;26.20;;;14.32;;
28968;SDS011;16076;51.194;6.642;2022-11-20T01:54:40;27.85;;;14.35;;
28968;SDS011;16076;51.194;6.642;2022-11-20T01:57:16;28.02;;;13.90;;
28968;SDS011;16076;51.194;6.642;2022-11-20T01:59:47;26.88;;;13.90;;
28968;SDS011;16076;51.194;6.642;2022-11-20T02:02:21;24.85;;;14.40;;
28968;SDS011;16076;51.194;6.642;2022-11-20T02:04:48;26.50;;;13.38;;
28968;SDS011;16076;51.194;6.642;2022-11-20T02:07:18;27.58;;;14.70;;
28968;SDS011;16076;51.194;6.642;2022-11-20T02:09:48;29.30;;;13.95;;
28968;SDS011;16076;51.194;6.642;2022-11-20T02:12:14;28.40;;;14.60;;
28968;SDS011;16076;51.194;6.642;2022-11-20T02:15:00;27.95;;;14.77;;
28968;SDS011;16076;51.194;6.642;2022-11-20T02:17:36;27.15;;;13.25;;
28968;SDS011;16076;51.194;6.642;2022-11-20T02:20:02;24.92;;;13.27;;
28968;SDS011;16076;51.194;6.642;2022-11-20T02:22:34;27.77;;;13.93;;
28968;SDS011;16076;51.194;6.642;2022-11-20T02:25:13;29.98;;;14.32;;
28968;SDS011;16076;51.194;6.642;2022-11-20T02:27:42;31.25;;;15.75;;
28968;SDS011;16076;51.194;6.642;2022-11-20T02:30:10;31.63;;;15.85;;
28968;SDS011;16076;51.194;6.642;2022-11-20T02:32:39;28.40;;;15.40;;
28968;SDS011;16076;51.194;6.642;2022-11-20T02:37:35;23.83;;;13.13;;
28968;SDS011;16076;51.194;6.642;2022-11-20T02:40:04;25.70;;;13.82;;
28968;SDS011;16076;51.194;6.642;2022-11-20T02:42:31;25.90;;;14.38;;
28968;SDS011;16076;51.194;6.642;2022-11-20T02:44:56;28.73;;;14.43;;
28968;SDS011;16076;51.194;6.642;2022-11-20T02:47:22;32.15;;;15.77;;
28968;SDS011;16076;51.194;6.642;2022-11-20T02:49:48;29.65;;;14.50;;
28968;SDS011;16076;51.194;6.642;2022-11-20T02:52:13;25.98;;;14.00;;
28968;SDS011;16076;51.194;6.642;2022-11-20T02:54:39;25.27;;;13.60;;
28968;SDS011;16076;51.194;6.642;2022-11-20T02:57:05;27.95;;;14.13;;
28968;SDS011;16076;51.194;6.642;2022-11-20T02:59:33;26.65;;;13.65;;
28968;SDS011;16076;51.194;6.642;2022-11-20T03:01:59;27.02;;;14.25;;
28968;SDS011;16076;51.194;6.642;2022-11-20T03:04:24;29.52;;;14.30;;
28968;SDS011;16076;51.194;6.642;2022-11-20T03:06:50;27.63;;;13.18;;
28968;SDS011;16076;51.194;6.642;2022-11-20T03:09:16;24.98;;;13.93;;
28968;SDS011;16076;51.194;6.642;2022-11-20T03:11:42;27.92;;;13.70;;
28968;SDS011;16076;51.194;6.642;2022-11-20T03:14:10;28.10;;;14.25;;
28968;SDS011;16076;51.194;6.642;2022-11-20T03:16:36;27.38;;;13.55;;
28968;SDS011;16076;51.194;6.642;2022-11-20T03:19:01;21.45;;;11.75;;
28968;SDS011;16076;51.194;6.642;2022-11-20T03:21:30;24.52;;;12.70;;
28968;SDS011;16076;51.194;6.642;2022-11-20T03:24:00;22.70;;;12.13;;
28968;SDS011;16076;51.194;6.642;2022-11-20T03:26:26;27.10;;;13.38;;
28968;SDS011;16076;51.194;6.642;2022-11-20T03:28:53;24.67;;;13.20;;
28968;SDS011;16076;51.194;6.642;2022-11-20T03:31:27;24.50;;;13.15;;
28968;SDS011;16076;51.194;6.642;2022-11-20T03:34:05;26.75;;;12.98;;
28968;SDS011;16076;51.194;6.642;2022-11-20T03:36:32;27.50;;;12.35;;
28968;SDS011;16076;51.194;6.642;2022-11-20T03:38:59;26.42;;;13.57;;
28968;SDS011;16076;51.194;6.642;2022-11-20T03:41:29;25.33;;;12.38;;
28968;SDS011;16076;51.194;6.642;2022-11-20T03:43:59;26.65;;;14.30;;
28968;SDS011;16076;51.194;6.642;2022-11-20T03:46:29;23.65;;;12.77;;
28968;SDS011;16076;51.194;6.642;2022-11-20T03:48:57;20.83;;;10.77;;
28968;SDS011;16076;51.194;6.642;2022-11-20T03:51:24;26.75;;;13.45;;
28968;SDS011;16076;51.194;6.642;2022-11-20T03:53:52;29.63;;;14.43;;
28968;SDS011;16076;51.194;6.642;2022-11-20T03:56:25;27.67;;;14.18;;
28968;SDS011;16076;51.194;6.642;2022-11-20T03:58:52;30.30;;;14.57;;
28968;SDS011;16076;51.194;6.642;2022-11-20T04:01:19;32.08;;;15.30;;
28968;SDS011;16076;51.194;6.642;2022-11-20T04:03:46;35.85;;;15.65;;
28968;SDS011;16076;51.194;6.642;2022-11-20T04:06:14;30.75;;;15.30;;
28968;SDS011;16076;51.194;6.642;2022-11-20T04:08:44;28.27;;;15.32;;
28968;SDS011;16076;51.194;6.642;2022-11-20T04:11:15;30.25;;;15.20;;
28968;SDS011;16076;51.194;6.642;2022-11-20T04:16:18;29.70;;;14.40;;
28968;SDS011;16076;51.194;6.642;2022-11-20T04:18:51;37.25;;;15.98;;
28968;SDS011;16076;51.194;6.642;2022-11-20T04:21:18;30.17;;;15.32;;
28968;SDS011;16076;51.194;6.642;2022-11-20T04:23:43;29.27;;;15.20;;
28968;SDS011;16076;51.194;6.642;2022-11-20T04:26:10;37.30;;;16.30;;
28968;SDS011;16076;51.194;6.642;2022-11-20T04:28:37;35.72;;;15.25;;
28968;SDS011;16076;51.194;6.642;2022-11-20T04:31:04;32.55;;;15.95;;
28968;SDS011;16076;51.194;6.642;2022-11-20T04:33:32;34.40;;;16.05;;
28968;SDS011;16076;51.194;6.642;2022-11-20T04:36:20;31.67;;;15.50;;
28968;SDS011;16076;51.194;6.642;2022-11-20T04:38:49;32.58;;;15.80;;
28968;SDS011;16076;51.194;6.642;2022-11-20T04:41:17;35.88;;;15.68;;
28968;SDS011;16076;51.194;6.642;2022-11-20T04:43:51;31.02;;;15.32;;
28968;SDS011;16076;51.194;6.642;2022-11-20T04:46:19;33.72;;;15.82;;
28968;SDS011;16076;51.194;6.642;2022-11-20T04:48:45;33.83;;;16.63;;
28968;SDS011;16076;51.194;6.642;2022-11-20T04:51:11;35.40;;;17.52;;
28968;SDS011;16076;51.194;6.642;2022-11-20T04:53:39;30.98;;;16.15;;
28968;SDS011;16076;51.194;6.642;2022-11-20T04:56:06;33.38;;;17.50;;
28968;SDS011;16076;51.194;6.642;2022-11-20T04:58:33;40.85;;;18.63;;
28968;SDS011;16076;51.194;6.642;2022-11-20T05:01:10;34.22;;;17.98;;
28968;SDS011;16076;51.194;6.642;2022-11-20T05:03:36;38.50;;;18.70;;
28968;SDS011;16076;51.194;6.642;2022-11-20T05:06:05;38.05;;;18.77;;
28968;SDS011;16076;51.194;6.642;2022-11-20T05:08:32;40.35;;;18.85;;
28968;SDS011;16076;51.194;6.642;2022-11-20T05:11:08;38.67;;;18.50;;
28968;SDS011;16076;51.194;6.642;2022-11-20T05:13:34;34.78;;;18.63;;
28968;SDS011;16076;51.194;6.642;2022-11-20T05:16:04;36.42;;;18.02;;
28968;SDS011;16076;51.194;6.642;2022-11-20T05:18:32;34.75;;;18.75;;
28968;SDS011;16076;51.194;6.642;2022-11-20T05:20:58;37.55;;;18.80;;
28968;SDS011;16076;51.194;6.642;2022-11-20T05:23:27;42.20;;;19.63;;
28968;SDS011;16076;51.194;6.642;2022-11-20T05:25:54;35.78;;;18.52;;
28968;SDS011;16076;51.194;6.642;2022-11-20T05:28:23;35.85;;;19.30;;
28968;SDS011;16076;51.194;6.642;2022-11-20T05:30:49;35.42;;;19.20;;
28968;SDS011;16076;51.194;6.642;2022-11-20T05:33:15;39.80;;;19.42;;
28968;SDS011;16076;51.194;6.642;2022-11-20T05:35:42;33.97;;;17.95;;
28968;SDS011;16076;51.194;6.642;2022-11-20T05:38:08;36.42;;;18.73;;
28968;SDS011;16076;51.194;6.642;2022-11-20T05:40:34;41.33;;;18.80;;
28968;SDS011;16076;51.194;6.642;2022-11-20T05:42:59;39.60;;;16.90;;
28968;SDS011;16076;51.194;6.642;2022-11-20T05:45:26;33.33;;;17.92;;
28968;SDS011;16076;51.194;6.642;2022-11-20T05:47:52;33.55;;;17.58;;
28968;SDS011;16076;51.194;6.642;2022-11-20T05:50:20;45.00;;;20.00;;
28968;SDS011;16076;51.194;6.642;2022-11-20T05:52:45;33.78;;;18.35;;
28968;SDS011;16076;51.194;6.642;2022-11-20T05:55:14;35.60;;;17.30;;
28968;SDS011;16076;51.194;6.642;2022-11-20T05:57:39;39.15;;;18.98;;
28968;SDS011;16076;51.194;6.642;2022-11-20T06:00:07;40.28;;;20.13;;
28968;SDS011;16076;51.194;6.642;2022-11-20T06:02:34;34.63;;;17.75;;
28968;SDS011;16076;51.194;6.642;2022-11-20T06:05:01;33.80;;;18.23;;
28968;SDS011;16076;51.194;6.642;2022-11-20T06:07:26;37.17;;;18.35;;
28968;SDS011;16076;51.194;6.642;2022-11-20T06:09:55;37.80;;;19.48;;
28968;SDS011;16076;51.194;6.642;2022-11-20T06:12:20;33.47;;;17.80;;
28968;SDS011;16076;51.194;6.642;2022-11-20T06:14:46;33.97;;;17.73;;
28968;SDS011;16076;51.194;6.642;2022-11-20T06:17:12;36.97;;;18.00;;
28968;SDS011;16076;51.194;6.642;2022-11-20T06:19:38;38.67;;;18.30;;
28968;SDS011;16076;51.194;6.642;2022-11-20T06:22:03;40.55;;;19.10;;
28968;SDS011;16076;51.194;6.642;2022-11-20T06:24:29;35.28;;;18.05;;
28968;SDS011;16076;51.194;6.642;2022-11-20T06:26:55;38.15;;;19.52;;
28968;SDS011;16076;51.194;6.642;2022-11-20T06:29:20;33.63;;;18.20;;
28968;SDS011;16076;51.194;6.642;2022-11-20T06:31:46;35.10;;;17.38;;
28968;SDS011;16076;51.194;6.642;2022-11-20T06:34:16;34.08;;;17.63;;
28968;SDS011;16076;51.194;6.642;2022-11-20T06:36:42;35.17;;;18.63;;
28968;SDS011;16076;51.194;6.642;2022-11-20T06:39:08;36.80;;;18.27;;
28968;SDS011;16076;51.194;6.642;2022-11-20T06:41:34;37.05;;;18.92;;
28968;SDS011;16076;51.194;6.642;2022-11-20T06:43:59;39.97;;;19.98;;
28968;SDS011;16076;51.194;6.642;2022-11-20T06:46:30;40.22;;;19.73;;
28968;SDS011;16076;51.194;6.642;2022-11-20T06:48:56;39.90;;;19.10;;
28968;SDS011;16076;51.194;6.642;2022-11-20T06:51:23;42.95;;;19.17;;
28968;SDS011;16076;51.194;6.642;2022-11-20T06:53:48;37.55;;;17.70;;
28968;SDS011;16076;51.194;6.642;2022-11-20T06:56:14;39.30;;;19.25;;
28968;SDS011;16076;51.194;6.642;2022-11-20T06:58:40;35.05;;;17.48;;
28968;SDS011;16076;51.194;6.642;2022-11-20T07:01:07;35.05;;;18.25;;
28968;SDS011;16076;51.194;6.642;2022-11-20T07:06:06;35.90;;;16.77;;
28968;SDS011;16076;51.194;6.642;2022-11-20T07:08:32;35.28;;;17.77;;
28968;SDS011;16076;51.194;6.642;2022-11-20T07:11:02;32.92;;;17.58;;
28968;SDS011;16076;51.194;6.642;2022-11-20T07:13:30;33.58;;;17.42;;
28968;SDS011;16076;51.194;6.642;2022-11-20T07:16:00;37.75;;;18.25;;
28968;SDS011;16076;51.194;6.642;2022-11-20T07:18:27;35.70;;;18.33;;
28968;SDS011;16076;51.194;6.642;2022-11-20T07:20:52;36.55;;;18.33;;
28968;SDS011;16076;51.194;6.642;2022-11-20T07:23:18;33.58;;;18.20;;
28968;SDS011;16076;51.194;6.642;2022-11-20T07:25:44;35.03;;;18.45;;
28968;SDS011;16076;51.194;6.642;2022-11-20T07:28:10;34.30;;;17.35;;
28968;SDS011;16076;51.194;6.642;2022-11-20T07:30:38;32.65;;;17.90;;
28968;SDS011;16076;51.194;6.642;2022-11-20T07:33:04;37.47;;;17.88;;
28968;SDS011;16076;51.194;6.642;2022-11-20T07:35:30;39.15;;;18.67;;
28968;SDS011;16076;51.194;6.642;2022-11-20T07:37:56;38.50;;;18.58;;
28968;SDS011;16076;51.194;6.642;2022-11-20T07:40:21;31.95;;;17.52;;
28968;SDS011;16076;51.194;6.642;2022-11-20T07:42:54;36.33;;;19.10;;
28968;SDS011;16076;51.194;6.642;2022-11-20T07:45:21;40.42;;;20.00;;
28968;SDS011;16076;51.194;6.642;2022-11-20T07:47:50;38.15;;;20.75;;
28968;SDS011;16076;51.194;6.642;2022-11-20T07:50:16;41.47;;;19.23;;
28968;SDS011;16076;51.194;6.642;2022-11-20T07:52:42;37.72;;;19.63;;
28968;SDS011;16076;51.194;6.642;2022-11-20T07:55:11;43.22;;;20.77;;
28968;SDS011;16076;51.194;6.642;2022-11-20T07:57:36;34.53;;;19.13;;
28968;SDS011;16076;51.194;6.642;2022-11-20T08:00:03;35.75;;;19.40;;
28968;SDS011;16076;51.194;6.642;2022-11-20T08:02:30;36.80;;;18.98;;
28968;SDS011;16076;51.194;6.642;2022-11-20T08:04:58;36.60;;;18.75;;
28968;SDS011;16076;51.194;6.642;2022-11-20T08:07:23;40.47;;;20.65;;
28968;SDS011;16076;51.194;6.642;2022-11-20T08:09:49;39.05;;;20.33;;
28968;SDS011;16076;51.194;6.642;2022-11-20T08:12:18;38.72;;;19.98;;
28968;SDS011;16076;51.194;6.642;2022-11-20T08:15:06;40.43;;;18.93;;
28968;SDS011;16076;51.194;6.642;2022-11-20T08:17:35;43.42;;;21.58;;
28968;SDS011;16076;51.194;6.642;2022-11-20T08:20:01;42.60;;;20.75;;
28968;SDS011;16076;51.194;6.642;2022-11-20T08:22:26;36.30;;;19.95;;
28968;SDS011;16076;51.194;6.642;2022-11-20T08:24:52;37.58;;;20.00;;
28968;SDS011;16076;51.194;6.642;2022-11-20T08:27:20;34.78;;;18.60;;
28968;SDS011;16076;51.194;6.642;2022-11-20T08:29:46;42.47;;;20.63;;
28968;SDS011;16076;51.194;6.642;2022-11-20T08:32:14;39.15;;;20.02;;
28968;SDS011;16076;51.194;6.642;2022-11-20T08:34:39;37.00;;;19.75;;
28968;SDS011;16076;51.194;6.642;2022-11-20T08:37:07;35.28;;;20.30;;
28968;SDS011;16076;51.194;6.642;2022-11-20T08:39:33;38.97;;;20.70;;
28968;SDS011;16076;51.194;6.642;2022-11-20T08:41:59;36.50;;;18.00;;
28968;SDS011;16076;51.194;6.642;2022-11-20T08:44:25;35.47;;;18.73;;
28968;SDS011;16076;51.194;6.642;2022-11-20T08:46:50;37.47;;;19.48;;
28968;SDS011;16076;51.194;6.642;2022-11-20T08:49:16;38.42;;;20.08;;
28968;SDS011;16076;51.194;6.642;2022-11-20T08:51:42;44.05;;;19.73;;
28968;SDS011;16076;51.194;6.642;2022-11-20T08:54:08;36.63;;;18.67;;
28968;SDS011;16076;51.194;6.642;2022-11-20T08:56:34;37.88;;;19.48;;
28968;SDS011;16076;51.194;6.642;2022-11-20T08:59:02;37.58;;;18.67;;
28968;SDS011;16076;51.194;6.642;2022-11-20T09:01:28;37.95;;;18.55;;
28968;SDS011;16076;51.194;6.642;2022-11-20T09:03:56;36.75;;;18.05;;
28968;SDS011;16076;51.194;6.642;2022-11-20T09:06:22;36.65;;;17.20;;
28968;SDS011;16076;51.194;6.642;2022-11-20T09:08:51;33.92;;;18.65;;
28968;SDS011;16076;51.194;6.642;2022-11-20T09:11:20;35.90;;;18.35;;
28968;SDS011;16076;51.194;6.642;2022-11-20T09:13:46;36.28;;;18.75;;
28968;SDS011;16076;51.194;6.642;2022-11-20T09:16:14;35.45;;;18.05;;
28968;SDS011;16076;51.194;6.642;2022-11-20T09:18:40;36.72;;;18.75;;
28968;SDS011;16076;51.194;6.642;2022-11-20T09:21:07;37.80;;;18.67;;
28968;SDS011;16076;51.194;6.642;2022-11-20T09:23:39;37.08;;;19.08;;
28968;SDS011;16076;51.194;6.642;2022-11-20T09:26:06;36.38;;;18.83;;
28968;SDS011;16076;51.194;6.642;2022-11-20T09:28:35;40.05;;;18.67;;
28968;SDS011;16076;51.194;6.642;2022-11-20T09:31:00;34.20;;;18.00;;
28968;SDS011;16076;51.194;6.642;2022-11-20T09:33:31;39.28;;;19.33;;
28968;SDS011;16076;51.194;6.642;2022-11-20T09:35:56;36.65;;;18.88;;
28968;SDS011;16076;51.194;6.642;2022-11-20T09:38:22;37.83;;;17.73;;
28968;SDS011;16076;51.194;6.642;2022-11-20T09:40:54;33.88;;;17.75;;
28968;SDS011;16076;51.194;6.642;2022-11-20T09:49:23;38.40;;;18.35;;
28968;SDS011;16076;51.194;6.642;2022-11-20T09:51:59;39.95;;;17.98;;
28968;SDS011;16076;51.194;6.642;2022-11-20T09:54:37;41.65;;;19.88;;
28968;SDS011;16076;51.194;6.642;2022-11-20T09:57:14;37.80;;;19.25;;
28968;SDS011;16076;51.194;6.642;2022-11-20T09:59:49;38.08;;;18.58;;
28968;SDS011;16076;51.194;6.642;2022-11-20T10:10:13;52.28;;;20.52;;
28968;SDS011;16076;51.194;6.642;2022-11-20T10:26:35;46.47;;;20.25;;
28968;SDS011;16076;51.194;6.642;2022-11-20T10:29:19;40.17;;;19.70;;
28968;SDS011;16076;51.194;6.642;2022-11-20T10:32:00;43.88;;;19.45;;
28968;SDS011;16076;51.194;6.642;2022-11-20T10:34:48;38.15;;;17.88;;
28968;SDS011;16076;51.194;6.642;2022-11-20T10:37:24;44.20;;;19.92;;
28968;SDS011;16076;51.194;6.642;2022-11-20T10:39:56;45.53;;;19.50;;
28968;SDS011;16076;51.194;6.642;2022-11-20T10:47:49;36.75;;;18.70;;
28968;SDS011;16076;51.194;6.642;2022-11-20T10:50:49;42.72;;;18.08;;
28968;SDS011;16076;51.194;6.642;2022-11-20T10:56:10;35.90;;;17.50;;
28968;SDS011;16076;51.194;6.642;2022-11-20T11:01:39;42.15;;;19.02;;
28968;SDS011;16076;51.194;6.642;2022-11-20T11:09:47;38.72;;;17.40;;
28968;SDS011;16076;51.194;6.642;2022-11-20T11:12:16;39.80;;;18.65;;
28968;SDS011;16076;51.194;6.642;2022-11-20T11:14:44;40.17;;;18.70;;
28968;SDS011;16076;51.194;6.642;2022-11-20T11:17:21;40.00;;;16.87;;
28968;SDS011;16076;51.194;6.642;2022-11-20T11:22:43;31.55;;;15.98;;
28968;SDS011;16076;51.194;6.642;2022-11-20T11:25:23;35.87;;;16.20;;
28968;SDS011;16076;51.194;6.642;2022-11-20T11:27:49;34.45;;;17.27;;
28968;SDS011;16076;51.194;6.642;2022-11-20T11:30:17;34.83;;;16.98;;
28968;SDS011;16076;51.194;6.642;2022-11-20T11:32:46;35.22;;;15.82;;
28968;SDS011;16076;51.194;6.642;2022-11-20T11:35:25;39.00;;;16.58;;
28968;SDS011;16076;51.194;6.642;2022-11-20T11:37:54;36.78;;;16.27;;
28968;SDS011;16076;51.194;6.642;2022-11-20T11:40:29;31.98;;;16.35;;
28968;SDS011;16076;51.194;6.642;2022-11-20T11:42:58;33.17;;;17.48;;
28968;SDS011;16076;51.194;6.642;2022-11-20T11:45:26;32.58;;;15.60;;
28968;SDS011;16076;51.194;6.642;2022-11-20T11:47:53;36.95;;;16.08;;
28968;SDS011;16076;51.194;6.642;2022-11-20T11:50:26;37.40;;;17.65;;
28968;SDS011;16076;51.194;6.642;2022-11-20T11:52:58;34.33;;;15.60;;
28968;SDS011;16076;51.194;6.642;2022-11-20T12:00:40;33.95;;;16.60;;
28968;SDS011;16076;51.194;6.642;2022-11-20T12:05:46;36.58;;;17.48;;
28968;SDS011;16076;51.194;6.642;2022-11-20T12:08:26;34.80;;;16.67;;
28968;SDS011;16076;51.194;6.642;2022-11-20T12:13:40;31.70;;;15.23;;
28968;SDS011;16076;51.194;6.642;2022-11-20T12:16:19;36.30;;;17.10;;
28968;SDS011;16076;51.194;6.642;2022-11-20T12:18:49;32.55;;;16.50;;
28968;SDS011;16076;51.194;6.642;2022-11-20T12:29:40;39.47;;;16.88;;
28968;SDS011;16076;51.194;6.642;2022-11-20T12:32:04;36.75;;;17.38;;
28968;SDS011;16076;51.194;6.642;2022-11-20T12:37:45;38.78;;;18.13;;
28968;SDS011;16076;51.194;6.642;2022-11-20T12:43:19;37.03;;;18.13;;
28968;SDS011;16076;51.194;6.642;2022-11-20T12:57:18;39.60;;;19.02;;
28968;SDS011;16076;51.194;6.642;2022-11-20T13:08:25;40.75;;;17.42;;
28968;SDS011;16076;51.194;6.642;2022-11-20T13:13:40;40.80;;;18.13;;
28968;SDS011;16076;51.194;6.642;2022-11-20T13:16:53;41.00;;;17.23;;
28968;SDS011;16076;51.194;6.642;2022-11-20T13:19:34;38.17;;;17.90;;
28968;SDS011;16076;51.194;6.642;2022-11-20T13:22:00;45.47;;;20.02;;
28968;SDS011;16076;51.194;6.642;2022-11-20T13:24:28;40.75;;;19.75;;
28968;SDS011;16076;51.194;6.642;2022-11-20T13:29:30;44.75;;;19.55;;
28968;SDS011;16076;51.194;6.642;2022-11-20T13:32:02;50.38;;;21.20;;
28968;SDS011;16076;51.194;6.642;2022-11-20T13:34:29;44.92;;;19.90;;
28968;SDS011;16076;51.194;6.642;2022-11-20T13:36:56;48.72;;;20.90;;
28968;SDS011;16076;51.194;6.642;2022-11-20T13:39:29;42.70;;;20.27;;
28968;SDS011;16076;51.194;6.642;2022-11-20T13:41:59;45.78;;;19.98;;
28968;SDS011;16076;51.194;6.642;2022-11-20T13:46:57;43.80;;;20.33;;
28968;SDS011;16076;51.194;6.642;2022-11-20T13:49:25;47.47;;;21.50;;
28968;SDS011;16076;51.194;6.642;2022-11-20T13:51:58;47.40;;;21.13;;
28968;SDS011;16076;51.194;6.642;2022-11-20T14:00:43;40.20;;;18.73;;
28968;SDS011;16076;51.194;6.642;2022-11-20T14:03:18;39.47;;;19.60;;
28968;SDS011;16076;51.194;6.642;2022-11-20T14:08:25;42.55;;;20.23;;
28968;SDS011;16076;51.194;6.642;2022-11-20T14:11:17;43.00;;;20.00;;
28968;SDS011;16076;51.194;6.642;2022-11-20T14:16:26;47.85;;;21.10;;
28968;SDS011;16076;51.194;6.642;2022-11-20T14:18:53;41.55;;;19.42;;
28968;SDS011;16076;51.194;6.642;2022-11-20T14:23:52;45.50;;;21.67;;
28968;SDS011;16076;51.194;6.642;2022-11-20T14:26:18;45.92;;;21.58;;
28968;SDS011;16076;51.194;6.642;2022-11-20T14:28:50;48.33;;;21.10;;
28968;SDS011;16076;51.194;6.642;2022-11-20T14:31:34;49.97;;;21.38;;
28968;SDS011;16076;51.194;6.642;2022-11-20T14:34:00;44.35;;;20.50;;
28968;SDS011;16076;51.194;6.642;2022-11-20T14:36:27;43.40;;;20.13;;
28968;SDS011;16076;51.194;6.642;2022-11-20T14:38:53;45.80;;;20.50;;
28968;SDS011;16076;51.194;6.642;2022-11-20T14:41:20;47.58;;;21.73;;
28968;SDS011;16076;51.194;6.642;2022-11-20T14:43:49;43.40;;;21.30;;
28968;SDS011;16076;51.194;6.642;2022-11-20T14:46:24;49.05;;;19.63;;
28968;SDS011;16076;51.194;6.642;2022-11-20T14:48:51;44.92;;;20.50;;
28968;SDS011;16076;51.194;6.642;2022-11-20T14:51:36;43.33;;;20.88;;
28968;SDS011;16076;51.194;6.642;2022-11-20T14:54:18;43.42;;;19.95;;
28968;SDS011;16076;51.194;6.642;2022-11-20T14:56:53;39.33;;;18.45;;
28968;SDS011;16076;51.194;6.642;2022-11-20T14:59:27;41.25;;;20.27;;
28968;SDS011;16076;51.194;6.642;2022-11-20T15:02:07;42.15;;;20.27;;
28968;SDS011;16076;51.194;6.642;2022-11-20T15:04:51;40.08;;;19.17;;
28968;SDS011;16076;51.194;6.642;2022-11-20T15:07:34;40.35;;;19.63;;
28968;SDS011;16076;51.194;6.642;2022-11-20T15:10:09;39.00;;;18.73;;
28968;SDS011;16076;51.194;6.642;2022-11-20T15:12:40;39.92;;;19.05;;
28968;SDS011;16076;51.194;6.642;2022-11-20T15:18:15;40.03;;;19.50;;
28968;SDS011;16076;51.194;6.642;2022-11-20T15:20:43;37.35;;;18.92;;
28968;SDS011;16076;51.194;6.642;2022-11-20T15:23:13;40.95;;;18.77;;
28968;SDS011;16076;51.194;6.642;2022-11-20T15:25:43;41.97;;;18.13;;
28968;SDS011;16076;51.194;6.642;2022-11-20T15:28:19;44.20;;;18.70;;
28968;SDS011;16076;51.194;6.642;2022-11-20T15:30:48;38.88;;;17.83;;
28968;SDS011;16076;51.194;6.642;2022-11-20T15:33:15;42.58;;;17.65;;
28968;SDS011;16076;51.194;6.642;2022-11-20T15:35:41;42.20;;;18.98;;
28968;SDS011;16076;51.194;6.642;2022-11-20T15:38:07;38.45;;;19.23;;
28968;SDS011;16076;51.194;6.642;2022-11-20T15:40:33;44.55;;;20.17;;
28968;SDS011;16076;51.194;6.642;2022-11-20T15:42:58;42.55;;;18.58;;
28968;SDS011;16076;51.194;6.642;2022-11-20T15:45:43;46.70;;;20.80;;
28968;SDS011;16076;51.194;6.642;2022-11-20T15:48:15;40.28;;;18.98;;
28968;SDS011;16076;51.194;6.642;2022-11-20T15:50:56;40.70;;;19.45;;
28968;SDS011;16076;51.194;6.642;2022-11-20T15:53:31;43.03;;;18.88;;
28968;SDS011;16076;51.194;6.642;2022-11-20T15:55:56;45.95;;;20.08;;
28968;SDS011;16076;51.194;6.642;2022-11-20T15:58:22;44.75;;;20.65;;
28968;SDS011;16076;51.194;6.642;2022-11-20T16:00:49;48.03;;;21.50;;
28968;SDS011;16076;51.194;6.642;2022-11-20T16:03:17;45.72;;;20.65;;
28968;SDS011;16076;51.194;6.642;2022-11-20T16:05:46;44.00;;;19.55;;
28968;SDS011;16076;51.194;6.642;2022-11-20T16:08:11;47.83;;;20.33;;
28968;SDS011;16076;51.194;6.642;2022-11-20T16:10:37;56.25;;;21.02;;
28968;SDS011;16076;51.194;6.642;2022-11-20T16:13:24;44.75;;;20.50;;
28968;SDS011;16076;51.194;6.642;2022-11-20T16:16:17;50.75;;;19.90;;
28968;SDS011;16076;51.194;6.642;2022-11-20T16:18:44;51.95;;;20.17;;
28968;SDS011;16076;51.194;6.642;2022-11-20T16:21:12;46.55;;;20.30;;
28968;SDS011;16076;51.194;6.642;2022-11-20T16:23:38;43.65;;;19.98;;
28968;SDS011;16076;51.194;6.642;2022-11-20T16:26:14;51.80;;;19.13;;
28968;SDS011;16076;51.194;6.642;2022-11-20T16:28:45;46.35;;;21.13;;
28968;SDS011;16076;51.194;6.642;2022-11-20T16:31:15;46.72;;;18.88;;
28968;SDS011;16076;51.194;6.642;2022-11-20T16:33:41;46.63;;;20.10;;
28968;SDS011;16076;51.194;6.642;2022-11-20T16:36:14;45.25;;;19.35;;
28968;SDS011;16076;51.194;6.642;2022-11-20T16:38:40;43.30;;;18.85;;
28968;SDS011;16076;51.194;6.642;2022-11-20T16:41:06;44.83;;;19.20;;
28968;SDS011;16076;51.194;6.642;2022-11-20T16:43:48;40.10;;;19.25;;
28968;SDS011;16076;51.194;6.642;2022-11-20T16:46:16;50.53;;;19.52;;